sensor_id;sensor_type;location;lat;lon;timestamp;P1;durP1;ratioP1;P2;durP2;ratioP2
26806;SDS011;14380;49.910;6.792;2023-06-14T00:00:07;3.35;;;2.40;;
26806;SDS011;14380;49.910;6.792;2023-06-14T00:02:34;5.15;;;2.15;;
26806;SDS011;14380;49.910;6.792;2023-06-14T00:05:01;2.60;;;1.88;;
26806;SDS011;14380;49.910;6.792;2023-06-14T00:07:34;1.90;;;1.67;;
26806;SDS011;14380;49.910;6.792;2023-06-14T00:10:02;2.20;;;1.95;;
26806;SDS011;14380;49.910;6.792;2023-06-14T00:12:30;1.98;;;1.73;;
26806;SDS011;14380;49.910;6.792;2023-06-14T00:14:57;3.75;;;2.17;;
26806;SDS011;14380;49.910;6.792;2023-06-14T00:17:26;5.55;;;2.20;;
26806;SDS011;14380;49.910;6.792;2023-06-14T00:19:55;3.65;;;2.03;;
26806;SDS011;14380;49.910;6.792;2023-06-14T00:22:22;2.47;;;2.05;;
26806;SDS011;14380;49.910;6.792;2023-06-14T00:24:50;3.97;;;1.88;;
26806;SDS011;14380;49.910;6.792;2023-06-14T00:27:17;2.47;;;2.03;;
26806;SDS011;14380;49.910;6.792;2023-06-14T00:29:45;3.88;;;2.35;;
26806;SDS011;14380;49.910;6.792;2023-06-14T00:32:12;4.47;;;2.30;;
26806;SDS011;14380;49.910;6.792;2023-06-14T00:34:38;3.80;;;2.10;;
26806;SDS011;14380;49.910;6.792;2023-06-14T00:37:05;2.80;;;2.17;;
26806;SDS011;14380;49.910;6.792;2023-06-14T00:39:32;2.80;;;1.80;;
26806;SDS011;14380;49.910;6.792;2023-06-14T00:42:00;2.65;;;1.85;;
26806;SDS011;14380;49.910;6.792;2023-06-14T00:44:27;5.30;;;2.17;;
26806;SDS011;14380;49.910;6.792;2023-06-14T00:46:55;2.65;;;1.80;;
26806;SDS011;14380;49.910;6.792;2023-06-14T00:49:22;3.05;;;2.08;;
26806;SDS011;14380;49.910;6.792;2023-06-14T00:51:49;2.97;;;2.00;;
26806;SDS011;14380;49.910;6.792;2023-06-14T00:54:16;3.33;;;2.00;;
26806;SDS011;14380;49.910;6.792;2023-06-14T00:56:43;2.00;;;1.80;;
26806;SDS011;14380;49.910;6.792;2023-06-14T00:59:10;3.20;;;2.00;;
26806;SDS011;14380;49.910;6.792;2023-06-14T01:01:37;3.42;;;1.80;;
26806;SDS011;14380;49.910;6.792;2023-06-14T01:04:06;3.03;;;2.13;;
26806;SDS011;14380;49.910;6.792;2023-06-14T01:06:33;6.20;;;2.30;;
26806;SDS011;14380;49.910;6.792;2023-06-14T01:09:09;2.45;;;1.90;;
26806;SDS011;14380;49.910;6.792;2023-06-14T01:11:47;2.97;;;2.33;;
26806;SDS011;14380;49.910;6.792;2023-06-14T01:14:22;3.50;;;2.40;;
26806;SDS011;14380;49.910;6.792;2023-06-14T01:16:51;4.07;;;2.35;;
26806;SDS011;14380;49.910;6.792;2023-06-14T01:19:20;3.28;;;2.00;;
26806;SDS011;14380;49.910;6.792;2023-06-14T01:21:50;4.53;;;2.65;;
26806;SDS011;14380;49.910;6.792;2023-06-14T01:24:21;4.25;;;2.40;;
26806;SDS011;14380;49.910;6.792;2023-06-14T01:26:50;3.90;;;2.20;;
26806;SDS011;14380;49.910;6.792;2023-06-14T01:29:20;3.60;;;2.20;;
26806;SDS011;14380;49.910;6.792;2023-06-14T01:31:49;4.13;;;2.47;;
26806;SDS011;14380;49.910;6.792;2023-06-14T01:34:16;2.50;;;1.73;;
26806;SDS011;14380;49.910;6.792;2023-06-14T01:36:43;3.30;;;1.92;;
26806;SDS011;14380;49.910;6.792;2023-06-14T01:39:11;3.35;;;2.10;;
26806;SDS011;14380;49.910;6.792;2023-06-14T01:41:42;2.65;;;2.20;;
26806;SDS011;14380;49.910;6.792;2023-06-14T01:44:10;3.88;;;1.83;;
26806;SDS011;14380;49.910;6.792;2023-06-14T01:46:40;3.50;;;2.30;;
26806;SDS011;14380;49.910;6.792;2023-06-14T01:49:08;2.60;;;2.20;;
26806;SDS011;14380;49.910;6.792;2023-06-14T01:51:35;3.67;;;2.35;;
26806;SDS011;14380;49.910;6.792;2023-06-14T01:54:02;4.47;;;2.20;;
26806;SDS011;14380;49.910;6.792;2023-06-14T01:56:28;2.78;;;2.00;;
26806;SDS011;14380;49.910;6.792;2023-06-14T01:58:57;3.75;;;2.58;;
26806;SDS011;14380;49.910;6.792;2023-06-14T02:01:23;3.88;;;2.20;;
26806;SDS011;14380;49.910;6.792;2023-06-14T02:03:50;3.08;;;2.17;;
26806;SDS011;14380;49.910;6.792;2023-06-14T02:06:18;2.53;;;2.10;;
26806;SDS011;14380;49.910;6.792;2023-06-14T02:08:45;3.15;;;2.05;;
26806;SDS011;14380;49.910;6.792;2023-06-14T02:11:11;2.13;;;1.70;;
26806;SDS011;14380;49.910;6.792;2023-06-14T02:13:38;2.60;;;1.90;;
26806;SDS011;14380;49.910;6.792;2023-06-14T02:16:06;2.78;;;2.17;;
26806;SDS011;14380;49.910;6.792;2023-06-14T02:18:32;5.75;;;2.10;;
26806;SDS011;14380;49.910;6.792;2023-06-14T02:20:59;3.63;;;1.92;;
26806;SDS011;14380;49.910;6.792;2023-06-14T02:23:26;3.20;;;1.70;;
26806;SDS011;14380;49.910;6.792;2023-06-14T02:25:53;4.43;;;2.55;;
26806;SDS011;14380;49.910;6.792;2023-06-14T02:28:19;2.85;;;2.13;;
26806;SDS011;14380;49.910;6.792;2023-06-14T02:30:46;5.32;;;2.08;;
26806;SDS011;14380;49.910;6.792;2023-06-14T02:33:14;1.88;;;1.52;;
26806;SDS011;14380;49.910;6.792;2023-06-14T02:35:40;3.92;;;2.17;;
26806;SDS011;14380;49.910;6.792;2023-06-14T02:38:07;3.67;;;2.55;;
26806;SDS011;14380;49.910;6.792;2023-06-14T02:40:33;3.28;;;1.88;;
26806;SDS011;14380;49.910;6.792;2023-06-14T02:43:00;2.35;;;1.80;;
26806;SDS011;14380;49.910;6.792;2023-06-14T02:45:27;2.55;;;1.90;;
26806;SDS011;14380;49.910;6.792;2023-06-14T02:47:53;3.63;;;2.78;;
26806;SDS011;14380;49.910;6.792;2023-06-14T02:50:22;4.05;;;2.22;;
26806;SDS011;14380;49.910;6.792;2023-06-14T02:52:49;2.75;;;2.08;;
26806;SDS011;14380;49.910;6.792;2023-06-14T02:55:15;3.72;;;2.25;;
26806;SDS011;14380;49.910;6.792;2023-06-14T02:57:42;2.70;;;1.80;;
26806;SDS011;14380;49.910;6.792;2023-06-14T03:00:09;2.70;;;2.00;;
26806;SDS011;14380;49.910;6.792;2023-06-14T03:02:38;2.92;;;2.30;;
26806;SDS011;14380;49.910;6.792;2023-06-14T03:05:05;3.38;;;2.30;;
26806;SDS011;14380;49.910;6.792;2023-06-14T03:07:34;2.45;;;2.25;;
26806;SDS011;14380;49.910;6.792;2023-06-14T03:10:06;3.30;;;2.58;;
26806;SDS011;14380;49.910;6.792;2023-06-14T03:12:34;2.50;;;2.08;;
26806;SDS011;14380;49.910;6.792;2023-06-14T03:15:00;4.10;;;2.55;;
26806;SDS011;14380;49.910;6.792;2023-06-14T03:17:30;3.00;;;2.40;;
26806;SDS011;14380;49.910;6.792;2023-06-14T03:19:58;2.65;;;2.20;;
26806;SDS011;14380;49.910;6.792;2023-06-14T03:22:25;3.17;;;2.30;;
26806;SDS011;14380;49.910;6.792;2023-06-14T03:24:53;4.05;;;2.28;;
26806;SDS011;14380;49.910;6.792;2023-06-14T03:27:20;3.30;;;2.20;;
26806;SDS011;14380;49.910;6.792;2023-06-14T03:29:47;3.85;;;2.40;;
26806;SDS011;14380;49.910;6.792;2023-06-14T03:32:13;3.17;;;2.45;;
26806;SDS011;14380;49.910;6.792;2023-06-14T03:34:40;2.45;;;2.00;;
26806;SDS011;14380;49.910;6.792;2023-06-14T03:37:07;4.10;;;2.13;;
26806;SDS011;14380;49.910;6.792;2023-06-14T03:39:34;3.17;;;1.80;;
26806;SDS011;14380;49.910;6.792;2023-06-14T03:42:02;5.35;;;2.28;;
26806;SDS011;14380;49.910;6.792;2023-06-14T03:44:30;3.55;;;2.42;;
26806;SDS011;14380;49.910;6.792;2023-06-14T03:46:56;2.42;;;2.20;;
26806;SDS011;14380;49.910;6.792;2023-06-14T03:49:23;2.58;;;2.15;;
26806;SDS011;14380;49.910;6.792;2023-06-14T03:51:50;2.20;;;1.95;;
26806;SDS011;14380;49.910;6.792;2023-06-14T03:54:17;6.70;;;2.03;;
26806;SDS011;14380;49.910;6.792;2023-06-14T03:56:44;5.97;;;1.85;;
26806;SDS011;14380;49.910;6.792;2023-06-14T03:59:12;2.53;;;1.80;;
26806;SDS011;14380;49.910;6.792;2023-06-14T04:01:39;2.05;;;1.70;;
26806;SDS011;14380;49.910;6.792;2023-06-14T04:04:10;3.00;;;2.50;;
26806;SDS011;14380;49.910;6.792;2023-06-14T04:06:37;2.15;;;1.75;;
26806;SDS011;14380;49.910;6.792;2023-06-14T04:09:07;3.13;;;2.30;;
26806;SDS011;14380;49.910;6.792;2023-06-14T04:11:33;3.63;;;2.13;;
26806;SDS011;14380;49.910;6.792;2023-06-14T04:14:01;3.63;;;2.50;;
26806;SDS011;14380;49.910;6.792;2023-06-14T04:16:29;2.78;;;2.50;;
26806;SDS011;14380;49.910;6.792;2023-06-14T04:18:57;2.60;;;2.03;;
26806;SDS011;14380;49.910;6.792;2023-06-14T04:21:23;2.30;;;1.95;;
26806;SDS011;14380;49.910;6.792;2023-06-14T04:23:51;2.95;;;1.98;;
26806;SDS011;14380;49.910;6.792;2023-06-14T04:26:20;3.75;;;2.38;;
26806;SDS011;14380;49.910;6.792;2023-06-14T04:28:48;3.42;;;2.67;;
26806;SDS011;14380;49.910;6.792;2023-06-14T04:31:15;3.33;;;2.38;;
26806;SDS011;14380;49.910;6.792;2023-06-14T04:33:44;3.60;;;2.35;;
26806;SDS011;14380;49.910;6.792;2023-06-14T04:36:11;4.10;;;2.20;;
26806;SDS011;14380;49.910;6.792;2023-06-14T04:38:38;4.80;;;2.35;;
26806;SDS011;14380;49.910;6.792;2023-06-14T04:41:06;2.47;;;2.03;;
26806;SDS011;14380;49.910;6.792;2023-06-14T04:43:36;2.75;;;2.30;;
26806;SDS011;14380;49.910;6.792;2023-06-14T04:46:04;2.35;;;2.15;;
26806;SDS011;14380;49.910;6.792;2023-06-14T04:48:34;2.83;;;2.03;;
26806;SDS011;14380;49.910;6.792;2023-06-14T04:51:03;2.33;;;1.92;;
26806;SDS011;14380;49.910;6.792;2023-06-14T04:53:30;3.20;;;2.20;;
26806;SDS011;14380;49.910;6.792;2023-06-14T04:55:57;2.80;;;1.70;;
26806;SDS011;14380;49.910;6.792;2023-06-14T04:58:25;2.75;;;2.15;;
26806;SDS011;14380;49.910;6.792;2023-06-14T05:00:52;2.63;;;2.03;;
26806;SDS011;14380;49.910;6.792;2023-06-14T05:03:20;4.05;;;1.90;;
26806;SDS011;14380;49.910;6.792;2023-06-14T05:05:48;3.40;;;2.20;;
26806;SDS011;14380;49.910;6.792;2023-06-14T05:08:17;2.83;;;2.00;;
26806;SDS011;14380;49.910;6.792;2023-06-14T05:10:44;3.15;;;1.83;;
26806;SDS011;14380;49.910;6.792;2023-06-14T05:13:10;2.17;;;1.98;;
26806;SDS011;14380;49.910;6.792;2023-06-14T05:15:37;2.55;;;2.17;;
26806;SDS011;14380;49.910;6.792;2023-06-14T05:18:03;3.10;;;2.20;;
26806;SDS011;14380;49.910;6.792;2023-06-14T05:20:30;2.53;;;2.10;;
26806;SDS011;14380;49.910;6.792;2023-06-14T05:22:57;2.13;;;1.80;;
26806;SDS011;14380;49.910;6.792;2023-06-14T05:25:25;2.80;;;2.08;;
26806;SDS011;14380;49.910;6.792;2023-06-14T05:27:53;2.70;;;1.90;;
26806;SDS011;14380;49.910;6.792;2023-06-14T05:30:20;5.10;;;2.60;;
26806;SDS011;14380;49.910;6.792;2023-06-14T05:32:46;3.67;;;1.95;;
26806;SDS011;14380;49.910;6.792;2023-06-14T05:35:13;2.58;;;1.80;;
26806;SDS011;14380;49.910;6.792;2023-06-14T05:37:40;2.47;;;2.13;;
26806;SDS011;14380;49.910;6.792;2023-06-14T05:40:07;3.03;;;2.40;;
26806;SDS011;14380;49.910;6.792;2023-06-14T05:42:36;3.22;;;1.92;;
26806;SDS011;14380;49.910;6.792;2023-06-14T05:45:03;2.45;;;1.90;;
26806;SDS011;14380;49.910;6.792;2023-06-14T05:47:31;3.22;;;2.13;;
26806;SDS011;14380;49.910;6.792;2023-06-14T05:49:57;3.03;;;2.17;;
26806;SDS011;14380;49.910;6.792;2023-06-14T05:52:24;2.58;;;2.15;;
26806;SDS011;14380;49.910;6.792;2023-06-14T05:54:51;5.22;;;2.10;;
26806;SDS011;14380;49.910;6.792;2023-06-14T05:57:18;3.15;;;2.13;;
26806;SDS011;14380;49.910;6.792;2023-06-14T05:59:46;2.17;;;1.88;;
26806;SDS011;14380;49.910;6.792;2023-06-14T06:02:13;3.28;;;2.53;;
26806;SDS011;14380;49.910;6.792;2023-06-14T06:04:40;2.53;;;2.25;;
26806;SDS011;14380;49.910;6.792;2023-06-14T06:07:06;3.60;;;2.30;;
26806;SDS011;14380;49.910;6.792;2023-06-14T06:09:33;3.97;;;2.33;;
26806;SDS011;14380;49.910;6.792;2023-06-14T06:12:00;2.33;;;2.10;;
26806;SDS011;14380;49.910;6.792;2023-06-14T06:14:27;3.53;;;2.25;;
26806;SDS011;14380;49.910;6.792;2023-06-14T06:16:55;1.95;;;1.80;;
26806;SDS011;14380;49.910;6.792;2023-06-14T06:19:22;3.13;;;2.08;;
26806;SDS011;14380;49.910;6.792;2023-06-14T06:21:49;1.90;;;1.42;;
26806;SDS011;14380;49.910;6.792;2023-06-14T06:24:16;3.83;;;2.05;;
26806;SDS011;14380;49.910;6.792;2023-06-14T06:26:42;2.38;;;1.60;;
26806;SDS011;14380;49.910;6.792;2023-06-14T06:29:09;3.17;;;1.83;;
26806;SDS011;14380;49.910;6.792;2023-06-14T06:31:36;3.90;;;1.70;;
26806;SDS011;14380;49.910;6.792;2023-06-14T06:34:04;3.35;;;1.83;;
26806;SDS011;14380;49.910;6.792;2023-06-14T06:36:32;2.17;;;1.88;;
26806;SDS011;14380;49.910;6.792;2023-06-14T06:38:58;4.65;;;2.10;;
26806;SDS011;14380;49.910;6.792;2023-06-14T06:41:25;3.92;;;1.98;;
26806;SDS011;14380;49.910;6.792;2023-06-14T06:43:52;1.70;;;1.55;;
26806;SDS011;14380;49.910;6.792;2023-06-14T06:46:19;1.75;;;1.50;;
26806;SDS011;14380;49.910;6.792;2023-06-14T06:48:45;3.47;;;2.08;;
26806;SDS011;14380;49.910;6.792;2023-06-14T06:51:14;1.58;;;1.40;;
26806;SDS011;14380;49.910;6.792;2023-06-14T06:53:42;3.95;;;1.90;;
26806;SDS011;14380;49.910;6.792;2023-06-14T06:56:09;2.35;;;1.92;;
26806;SDS011;14380;49.910;6.792;2023-06-14T06:58:36;2.20;;;1.73;;
26806;SDS011;14380;49.910;6.792;2023-06-14T07:01:03;4.22;;;1.90;;
26806;SDS011;14380;49.910;6.792;2023-06-14T07:03:30;2.50;;;1.60;;
26806;SDS011;14380;49.910;6.792;2023-06-14T07:05:56;1.63;;;1.33;;
26806;SDS011;14380;49.910;6.792;2023-06-14T07:08:25;2.58;;;1.75;;
26806;SDS011;14380;49.910;6.792;2023-06-14T07:10:52;2.97;;;1.77;;
26806;SDS011;14380;49.910;6.792;2023-06-14T07:13:18;3.33;;;2.13;;
26806;SDS011;14380;49.910;6.792;2023-06-14T07:15:46;2.05;;;1.55;;
26806;SDS011;14380;49.910;6.792;2023-06-14T07:18:12;2.72;;;2.00;;
26806;SDS011;14380;49.910;6.792;2023-06-14T07:20:39;3.70;;;1.58;;
26806;SDS011;14380;49.910;6.792;2023-06-14T07:23:06;2.83;;;1.50;;
26806;SDS011;14380;49.910;6.792;2023-06-14T07:25:34;8.65;;;1.92;;
26806;SDS011;14380;49.910;6.792;2023-06-14T07:28:01;2.28;;;1.58;;
26806;SDS011;14380;49.910;6.792;2023-06-14T07:30:28;2.30;;;2.05;;
26806;SDS011;14380;49.910;6.792;2023-06-14T07:32:55;3.25;;;1.85;;
26806;SDS011;14380;49.910;6.792;2023-06-14T07:35:22;2.25;;;1.70;;
26806;SDS011;14380;49.910;6.792;2023-06-14T07:37:49;2.88;;;1.38;;
26806;SDS011;14380;49.910;6.792;2023-06-14T07:40:16;3.28;;;2.03;;
26806;SDS011;14380;49.910;6.792;2023-06-14T07:42:44;1.58;;;1.30;;
26806;SDS011;14380;49.910;6.792;2023-06-14T07:45:12;3.95;;;2.03;;
26806;SDS011;14380;49.910;6.792;2023-06-14T07:47:40;2.03;;;1.63;;
26806;SDS011;14380;49.910;6.792;2023-06-14T07:50:07;3.42;;;1.42;;
26806;SDS011;14380;49.910;6.792;2023-06-14T07:52:34;3.08;;;2.00;;
26806;SDS011;14380;49.910;6.792;2023-06-14T07:55:01;2.63;;;1.98;;
26806;SDS011;14380;49.910;6.792;2023-06-14T07:57:28;2.75;;;2.05;;
26806;SDS011;14380;49.910;6.792;2023-06-14T07:59:56;1.92;;;1.30;;
26806;SDS011;14380;49.910;6.792;2023-06-14T08:02:23;2.97;;;2.10;;
26806;SDS011;14380;49.910;6.792;2023-06-14T08:04:50;2.05;;;1.40;;
26806;SDS011;14380;49.910;6.792;2023-06-14T08:07:17;2.13;;;1.80;;
26806;SDS011;14380;49.910;6.792;2023-06-14T08:09:44;1.95;;;1.40;;
26806;SDS011;14380;49.910;6.792;2023-06-14T08:12:11;2.03;;;1.70;;
26806;SDS011;14380;49.910;6.792;2023-06-14T08:14:38;2.17;;;1.70;;
26806;SDS011;14380;49.910;6.792;2023-06-14T08:17:06;3.78;;;1.95;;
26806;SDS011;14380;49.910;6.792;2023-06-14T08:19:33;1.80;;;1.60;;
26806;SDS011;14380;49.910;6.792;2023-06-14T08:22:00;2.80;;;2.00;;
26806;SDS011;14380;49.910;6.792;2023-06-14T08:24:28;2.30;;;1.63;;
26806;SDS011;14380;49.910;6.792;2023-06-14T08:26:55;2.53;;;1.70;;
26806;SDS011;14380;49.910;6.792;2023-06-14T08:29:26;2.00;;;1.67;;
26806;SDS011;14380;49.910;6.792;2023-06-14T08:31:54;2.75;;;1.55;;
26806;SDS011;14380;49.910;6.792;2023-06-14T08:34:23;2.72;;;1.80;;
26806;SDS011;14380;49.910;6.792;2023-06-14T08:36:50;3.63;;;1.58;;
26806;SDS011;14380;49.910;6.792;2023-06-14T08:39:16;3.47;;;1.73;;
26806;SDS011;14380;49.910;6.792;2023-06-14T08:41:44;2.47;;;1.80;;
26806;SDS011;14380;49.910;6.792;2023-06-14T08:44:13;3.53;;;2.15;;
26806;SDS011;14380;49.910;6.792;2023-06-14T08:46:40;3.83;;;1.80;;
26806;SDS011;14380;49.910;6.792;2023-06-14T08:49:10;2.47;;;1.80;;
26806;SDS011;14380;49.910;6.792;2023-06-14T08:51:40;2.05;;;1.85;;
26806;SDS011;14380;49.910;6.792;2023-06-14T08:54:08;3.00;;;2.15;;
26806;SDS011;14380;49.910;6.792;2023-06-14T08:56:37;1.92;;;1.65;;
26806;SDS011;14380;49.910;6.792;2023-06-14T08:59:06;1.52;;;1.33;;
26806;SDS011;14380;49.910;6.792;2023-06-14T09:01:34;2.15;;;1.70;;
26806;SDS011;14380;49.910;6.792;2023-06-14T09:04:03;2.05;;;1.60;;
26806;SDS011;14380;49.910;6.792;2023-06-14T09:06:31;1.98;;;1.40;;
26806;SDS011;14380;49.910;6.792;2023-06-14T09:08:59;3.17;;;1.80;;
26806;SDS011;14380;49.910;6.792;2023-06-14T09:11:27;4.63;;;1.80;;
26806;SDS011;14380;49.910;6.792;2023-06-14T09:13:54;2.60;;;1.85;;
26806;SDS011;14380;49.910;6.792;2023-06-14T09:16:21;3.50;;;1.63;;
26806;SDS011;14380;49.910;6.792;2023-06-14T09:18:47;1.92;;;1.58;;
26806;SDS011;14380;49.910;6.792;2023-06-14T09:21:15;1.55;;;1.20;;
26806;SDS011;14380;49.910;6.792;2023-06-14T09:23:43;3.22;;;1.75;;
26806;SDS011;14380;49.910;6.792;2023-06-14T09:26:12;3.03;;;1.92;;
26806;SDS011;14380;49.910;6.792;2023-06-14T09:28:43;2.35;;;1.40;;
26806;SDS011;14380;49.910;6.792;2023-06-14T09:31:11;2.97;;;1.60;;
26806;SDS011;14380;49.910;6.792;2023-06-14T09:33:38;3.55;;;1.70;;
26806;SDS011;14380;49.910;6.792;2023-06-14T09:36:06;1.83;;;1.63;;
26806;SDS011;14380;49.910;6.792;2023-06-14T09:38:36;2.35;;;1.48;;
26806;SDS011;14380;49.910;6.792;2023-06-14T09:41:06;1.63;;;1.27;;
26806;SDS011;14380;49.910;6.792;2023-06-14T09:43:34;2.10;;;1.33;;
26806;SDS011;14380;49.910;6.792;2023-06-14T09:46:02;3.47;;;1.92;;
26806;SDS011;14380;49.910;6.792;2023-06-14T09:48:31;2.22;;;1.45;;
26806;SDS011;14380;49.910;6.792;2023-06-14T09:50:58;1.77;;;1.30;;
26806;SDS011;14380;49.910;6.792;2023-06-14T09:53:29;1.85;;;1.27;;
26806;SDS011;14380;49.910;6.792;2023-06-14T09:55:57;1.83;;;1.23;;
26806;SDS011;14380;49.910;6.792;2023-06-14T09:58:26;2.00;;;1.00;;
26806;SDS011;14380;49.910;6.792;2023-06-14T10:00:56;1.35;;;1.17;;
26806;SDS011;14380;49.910;6.792;2023-06-14T10:03:25;2.55;;;1.30;;
26806;SDS011;14380;49.910;6.792;2023-06-14T10:05:55;1.42;;;1.33;;
26806;SDS011;14380;49.910;6.792;2023-06-14T10:08:27;1.60;;;1.20;;
26806;SDS011;14380;49.910;6.792;2023-06-14T10:10:58;1.63;;;1.20;;
26806;SDS011;14380;49.910;6.792;2023-06-14T10:13:25;2.65;;;1.50;;
26806;SDS011;14380;49.910;6.792;2023-06-14T10:15:57;10.00;;;1.65;;
26806;SDS011;14380;49.910;6.792;2023-06-14T10:18:29;1.50;;;1.10;;
26806;SDS011;14380;49.910;6.792;2023-06-14T10:21:03;2.08;;;1.27;;
26806;SDS011;14380;49.910;6.792;2023-06-14T10:23:35;3.63;;;1.23;;
26806;SDS011;14380;49.910;6.792;2023-06-14T10:26:06;2.10;;;1.58;;
26806;SDS011;14380;49.910;6.792;2023-06-14T10:28:33;2.40;;;1.40;;
26806;SDS011;14380;49.910;6.792;2023-06-14T10:31:07;1.52;;;1.25;;
26806;SDS011;14380;49.910;6.792;2023-06-14T10:33:35;1.35;;;1.25;;
26806;SDS011;14380;49.910;6.792;2023-06-14T10:36:09;1.23;;;1.02;;
26806;SDS011;14380;49.910;6.792;2023-06-14T10:38:56;1.95;;;1.00;;
26806;SDS011;14380;49.910;6.792;2023-06-14T10:41:23;1.63;;;1.23;;
26806;SDS011;14380;49.910;6.792;2023-06-14T10:43:52;1.50;;;1.10;;
26806;SDS011;14380;49.910;6.792;2023-06-14T10:46:21;3.00;;;1.05;;
26806;SDS011;14380;49.910;6.792;2023-06-14T10:48:56;1.30;;;1.10;;
26806;SDS011;14380;49.910;6.792;2023-06-14T10:51:24;1.83;;;1.13;;
26806;SDS011;14380;49.910;6.792;2023-06-14T10:53:51;2.55;;;0.90;;
26806;SDS011;14380;49.910;6.792;2023-06-14T10:56:27;1.83;;;1.05;;
26806;SDS011;14380;49.910;6.792;2023-06-14T10:58:56;1.90;;;1.27;;
26806;SDS011;14380;49.910;6.792;2023-06-14T11:01:28;1.65;;;1.00;;
26806;SDS011;14380;49.910;6.792;2023-06-14T11:04:11;1.15;;;1.00;;
26806;SDS011;14380;49.910;6.792;2023-06-14T11:06:47;1.35;;;1.17;;
26806;SDS011;14380;49.910;6.792;2023-06-14T11:09:35;1.40;;;0.90;;
26806;SDS011;14380;49.910;6.792;2023-06-14T11:12:14;1.20;;;1.10;;
26806;SDS011;14380;49.910;6.792;2023-06-14T11:14:45;1.10;;;0.88;;
26806;SDS011;14380;49.910;6.792;2023-06-14T11:17:14;2.08;;;1.08;;
26806;SDS011;14380;49.910;6.792;2023-06-14T11:19:40;1.00;;;0.90;;
26806;SDS011;14380;49.910;6.792;2023-06-14T11:22:07;1.08;;;0.82;;
26806;SDS011;14380;49.910;6.792;2023-06-14T11:24:34;1.33;;;1.15;;
26806;SDS011;14380;49.910;6.792;2023-06-14T11:27:01;3.85;;;1.55;;
26806;SDS011;14380;49.910;6.792;2023-06-14T11:29:29;2.22;;;1.13;;
26806;SDS011;14380;49.910;6.792;2023-06-14T11:31:56;1.00;;;0.90;;
26806;SDS011;14380;49.910;6.792;2023-06-14T11:34:24;1.85;;;0.93;;
26806;SDS011;14380;49.910;6.792;2023-06-14T11:36:50;1.58;;;0.85;;
26806;SDS011;14380;49.910;6.792;2023-06-14T11:39:17;1.17;;;0.90;;
26806;SDS011;14380;49.910;6.792;2023-06-14T11:41:51;1.35;;;0.90;;
26806;SDS011;14380;49.910;6.792;2023-06-14T11:44:18;1.15;;;0.80;;
26806;SDS011;14380;49.910;6.792;2023-06-14T11:46:44;0.88;;;0.70;;
26806;SDS011;14380;49.910;6.792;2023-06-14T11:49:11;2.35;;;0.88;;
26806;SDS011;14380;49.910;6.792;2023-06-14T11:51:39;1.40;;;0.95;;
26806;SDS011;14380;49.910;6.792;2023-06-14T11:54:08;1.95;;;1.00;;
26806;SDS011;14380;49.910;6.792;2023-06-14T11:56:36;3.53;;;0.95;;
26806;SDS011;14380;49.910;6.792;2023-06-14T11:59:03;1.17;;;0.95;;
26806;SDS011;14380;49.910;6.792;2023-06-14T12:01:30;1.83;;;1.17;;
26806;SDS011;14380;49.910;6.792;2023-06-14T12:03:58;1.08;;;0.70;;
26806;SDS011;14380;49.910;6.792;2023-06-14T12:06:26;1.98;;;0.70;;
26806;SDS011;14380;49.910;6.792;2023-06-14T12:08:56;1.08;;;0.98;;
26806;SDS011;14380;49.910;6.792;2023-06-14T12:11:23;2.22;;;1.10;;
26806;SDS011;14380;49.910;6.792;2023-06-14T12:13:50;1.05;;;0.88;;
26806;SDS011;14380;49.910;6.792;2023-06-14T12:16:17;4.97;;;1.48;;
26806;SDS011;14380;49.910;6.792;2023-06-14T12:18:43;1.02;;;0.73;;
26806;SDS011;14380;49.910;6.792;2023-06-14T12:21:10;2.38;;;0.90;;
26806;SDS011;14380;49.910;6.792;2023-06-14T12:23:43;0.75;;;0.63;;
26806;SDS011;14380;49.910;6.792;2023-06-14T12:26:13;1.35;;;0.80;;
26806;SDS011;14380;49.910;6.792;2023-06-14T12:28:41;1.10;;;0.90;;
26806;SDS011;14380;49.910;6.792;2023-06-14T12:31:08;1.23;;;0.77;;
26806;SDS011;14380;49.910;6.792;2023-06-14T12:33:36;0.93;;;0.63;;
26806;SDS011;14380;49.910;6.792;2023-06-14T12:36:03;1.65;;;0.80;;
26806;SDS011;14380;49.910;6.792;2023-06-14T12:38:31;5.32;;;0.77;;
26806;SDS011;14380;49.910;6.792;2023-06-14T12:40:57;0.95;;;0.70;;
26806;SDS011;14380;49.910;6.792;2023-06-14T12:43:25;2.00;;;1.00;;
26806;SDS011;14380;49.910;6.792;2023-06-14T12:45:52;0.70;;;0.70;;
26806;SDS011;14380;49.910;6.792;2023-06-14T12:48:19;0.95;;;0.70;;
26806;SDS011;14380;49.910;6.792;2023-06-14T12:53:15;1.23;;;1.00;;
26806;SDS011;14380;49.910;6.792;2023-06-14T12:55:42;4.97;;;1.05;;
26806;SDS011;14380;49.910;6.792;2023-06-14T12:58:09;0.80;;;0.75;;
26806;SDS011;14380;49.910;6.792;2023-06-14T13:00:38;1.08;;;0.85;;
26806;SDS011;14380;49.910;6.792;2023-06-14T13:03:05;1.98;;;1.00;;
26806;SDS011;14380;49.910;6.792;2023-06-14T13:05:32;0.50;;;0.50;;
26806;SDS011;14380;49.910;6.792;2023-06-14T13:07:58;1.92;;;0.75;;
26806;SDS011;14380;49.910;6.792;2023-06-14T13:10:25;1.38;;;0.73;;
26806;SDS011;14380;49.910;6.792;2023-06-14T13:12:52;1.15;;;0.63;;
26806;SDS011;14380;49.910;6.792;2023-06-14T13:15:19;1.15;;;0.95;;
26806;SDS011;14380;49.910;6.792;2023-06-14T13:17:47;2.30;;;0.65;;
26806;SDS011;14380;49.910;6.792;2023-06-14T13:20:14;0.60;;;0.55;;
26806;SDS011;14380;49.910;6.792;2023-06-14T13:22:41;1.10;;;0.60;;
26806;SDS011;14380;49.910;6.792;2023-06-14T13:25:08;1.23;;;0.85;;
26806;SDS011;14380;49.910;6.792;2023-06-14T13:27:35;0.93;;;0.70;;
26806;SDS011;14380;49.910;6.792;2023-06-14T13:30:02;1.55;;;0.70;;
26806;SDS011;14380;49.910;6.792;2023-06-14T13:32:30;1.30;;;0.90;;
26806;SDS011;14380;49.910;6.792;2023-06-14T13:34:58;0.70;;;0.60;;
26806;SDS011;14380;49.910;6.792;2023-06-14T13:37:25;1.38;;;0.70;;
26806;SDS011;14380;49.910;6.792;2023-06-14T13:39:52;0.80;;;0.63;;
26806;SDS011;14380;49.910;6.792;2023-06-14T13:42:19;1.25;;;0.80;;
26806;SDS011;14380;49.910;6.792;2023-06-14T13:44:46;1.05;;;0.70;;
26806;SDS011;14380;49.910;6.792;2023-06-14T13:47:12;1.08;;;0.80;;
26806;SDS011;14380;49.910;6.792;2023-06-14T13:49:39;1.15;;;0.70;;
26806;SDS011;14380;49.910;6.792;2023-06-14T13:52:08;0.95;;;0.63;;
26806;SDS011;14380;49.910;6.792;2023-06-14T13:54:36;0.88;;;0.73;;
26806;SDS011;14380;49.910;6.792;2023-06-14T13:57:03;0.95;;;0.60;;
26806;SDS011;14380;49.910;6.792;2023-06-14T13:59:30;1.20;;;0.60;;
26806;SDS011;14380;49.910;6.792;2023-06-14T14:01:57;0.73;;;0.73;;
26806;SDS011;14380;49.910;6.792;2023-06-14T14:04:24;1.05;;;0.80;;
26806;SDS011;14380;49.910;6.792;2023-06-14T14:06:51;0.82;;;0.73;;
26806;SDS011;14380;49.910;6.792;2023-06-14T14:09:19;0.93;;;0.85;;
26806;SDS011;14380;49.910;6.792;2023-06-14T14:11:46;1.75;;;0.63;;
26806;SDS011;14380;49.910;6.792;2023-06-14T14:14:13;0.98;;;0.70;;
26806;SDS011;14380;49.910;6.792;2023-06-14T14:16:40;0.80;;;0.70;;
26806;SDS011;14380;49.910;6.792;2023-06-14T14:19:07;0.70;;;0.52;;
26806;SDS011;14380;49.910;6.792;2023-06-14T14:21:34;0.90;;;0.65;;
26806;SDS011;14380;49.910;6.792;2023-06-14T14:24:01;2.20;;;0.77;;
26806;SDS011;14380;49.910;6.792;2023-06-14T14:26:29;0.95;;;0.80;;
26806;SDS011;14380;49.910;6.792;2023-06-14T14:28:56;0.40;;;0.30;;
26806;SDS011;14380;49.910;6.792;2023-06-14T14:31:22;0.85;;;0.68;;
26806;SDS011;14380;49.910;6.792;2023-06-14T14:33:49;0.80;;;0.80;;
26806;SDS011;14380;49.910;6.792;2023-06-14T14:36:16;0.60;;;0.60;;
26806;SDS011;14380;49.910;6.792;2023-06-14T14:38:43;0.50;;;0.50;;
26806;SDS011;14380;49.910;6.792;2023-06-14T14:41:10;1.05;;;0.70;;
26806;SDS011;14380;49.910;6.792;2023-06-14T14:43:38;1.33;;;0.50;;
26806;SDS011;14380;49.910;6.792;2023-06-14T14:46:05;0.60;;;0.57;;
26806;SDS011;14380;49.910;6.792;2023-06-14T14:48:32;2.83;;;0.82;;
26806;SDS011;14380;49.910;6.792;2023-06-14T14:50:58;0.60;;;0.50;;
26806;SDS011;14380;49.910;6.792;2023-06-14T14:53:25;1.58;;;0.60;;